Centerhill, Florida
Current Conditions -  °F | °C
As of 9:53 AM on Wednesday 22 Oct 2014 (Local Time) from KLEE Reporting Station
Clear Clear  
Wind Chill: 72°   Ceiling: Unl
Heat Index: 72°   Visibility: 10mi
Dew Point: 59°   Wind: 9mph
Humidity: 64%   Direction: 10°N
Pressure: 30.02"   Gusts: NA
Location:  28.6964°N, 82.0038°W
Report Text: KLEE 221353Z 01008KT 10SM CLR 22/15 A3002 RMK AO2 SLP165 T02220150
Loading
Personal Weather Stations






























Interactive Weather Map
Tropical Storm Tracking
New forecast layout! Learn more

10-Day Weather Forecast

Advertisements
Track Severe Weather on mobile